sensor_id;sensor_type;location;lat;lon;timestamp;temperature;humidity
56298;DHT22;42208;6.376;-10.782;2023-02-18T00:01:46;27.30;99.90
56298;DHT22;42208;6.376;-10.782;2023-02-18T00:04:14;27.30;99.90
56298;DHT22;42208;6.376;-10.782;2023-02-18T00:06:45;27.20;99.90
56298;DHT22;42208;6.376;-10.782;2023-02-18T00:09:13;27.20;99.90
56298;DHT22;42208;6.376;-10.782;2023-02-18T00:11:41;27.20;99.90
56298;DHT22;42208;6.376;-10.782;2023-02-18T00:14:14;27.20;99.90
56298;DHT22;42208;6.376;-10.782;2023-02-18T00:16:44;27.20;99.90
56298;DHT22;42208;6.376;-10.782;2023-02-18T00:19:18;27.20;99.90
56298;DHT22;42208;6.376;-10.782;2023-02-18T00:21:47;27.20;99.90
56298;DHT22;42208;6.376;-10.782;2023-02-18T00:24:15;27.10;99.90
56298;DHT22;42208;6.376;-10.782;2023-02-18T00:26:44;27.10;99.90
56298;DHT22;42208;6.376;-10.782;2023-02-18T00:29:13;27.10;99.90
56298;DHT22;42208;6.376;-10.782;2023-02-18T00:31:41;27.10;99.90
56298;DHT22;42208;6.376;-10.782;2023-02-18T00:34:11;27.10;99.90
56298;DHT22;42208;6.376;-10.782;2023-02-18T00:36:40;27.10;99.90
56298;DHT22;42208;6.376;-10.782;2023-02-18T00:39:10;27.10;99.90
56298;DHT22;42208;6.376;-10.782;2023-02-18T00:41:39;27.10;99.90
56298;DHT22;42208;6.376;-10.782;2023-02-18T00:44:09;27.10;99.90
56298;DHT22;42208;6.376;-10.782;2023-02-18T00:46:38;27.10;99.90
56298;DHT22;42208;6.376;-10.782;2023-02-18T00:49:08;27.10;99.90
56298;DHT22;42208;6.376;-10.782;2023-02-18T00:51:36;27.10;99.90
56298;DHT22;42208;6.376;-10.782;2023-02-18T00:54:05;27.10;99.90
56298;DHT22;42208;6.376;-10.782;2023-02-18T00:56:33;27.10;99.90
56298;DHT22;42208;6.376;-10.782;2023-02-18T00:59:02;27.10;99.90
56298;DHT22;42208;6.376;-10.782;2023-02-18T01:01:30;27.10;99.90
56298;DHT22;42208;6.376;-10.782;2023-02-18T01:03:59;27.10;99.90
56298;DHT22;42208;6.376;-10.782;2023-02-18T01:06:27;27.00;99.90
56298;DHT22;42208;6.376;-10.782;2023-02-18T01:08:56;27.10;99.90
56298;DHT22;42208;6.376;-10.782;2023-02-18T01:11:25;27.00;99.90
56298;DHT22;42208;6.376;-10.782;2023-02-18T01:13:53;27.00;99.90
56298;DHT22;42208;6.376;-10.782;2023-02-18T01:16:22;27.00;99.90
56298;DHT22;42208;6.376;-10.782;2023-02-18T01:18:51;27.00;99.90
56298;DHT22;42208;6.376;-10.782;2023-02-18T01:21:19;27.00;99.90
56298;DHT22;42208;6.376;-10.782;2023-02-18T01:23:49;27.00;99.90
56298;DHT22;42208;6.376;-10.782;2023-02-18T01:26:17;27.00;99.90
56298;DHT22;42208;6.376;-10.782;2023-02-18T01:28:46;26.90;99.90
56298;DHT22;42208;6.376;-10.782;2023-02-18T01:31:16;27.00;99.90
56298;DHT22;42208;6.376;-10.782;2023-02-18T01:33:45;26.90;99.90
56298;DHT22;42208;6.376;-10.782;2023-02-18T01:36:13;26.90;99.90
56298;DHT22;42208;6.376;-10.782;2023-02-18T01:38:41;26.90;99.90
56298;DHT22;42208;6.376;-10.782;2023-02-18T01:41:10;26.90;99.90
56298;DHT22;42208;6.376;-10.782;2023-02-18T01:43:39;26.90;99.90
56298;DHT22;42208;6.376;-10.782;2023-02-18T01:46:20;26.90;99.90
56298;DHT22;42208;6.376;-10.782;2023-02-18T01:48:59;26.80;99.90
56298;DHT22;42208;6.376;-10.782;2023-02-18T01:51:32;26.80;99.90
56298;DHT22;42208;6.376;-10.782;2023-02-18T01:54:10;26.80;99.90
56298;DHT22;42208;6.376;-10.782;2023-02-18T01:56:50;26.80;99.90
56298;DHT22;42208;6.376;-10.782;2023-02-18T01:59:43;26.70;99.90
56298;DHT22;42208;6.376;-10.782;2023-02-18T02:02:17;26.70;99.90
56298;DHT22;42208;6.376;-10.782;2023-02-18T02:04:47;26.70;99.90
56298;DHT22;42208;6.376;-10.782;2023-02-18T02:07:18;26.70;99.90
56298;DHT22;42208;6.376;-10.782;2023-02-18T02:09:48;26.70;99.90
56298;DHT22;42208;6.376;-10.782;2023-02-18T02:15:45;26.70;99.90
56298;DHT22;42208;6.376;-10.782;2023-02-18T02:21:36;26.60;99.90
56298;DHT22;42208;6.376;-10.782;2023-02-18T02:40:56;26.50;99.90
56298;DHT22;42208;6.376;-10.782;2023-02-18T02:46:34;26.50;99.90
56298;DHT22;42208;6.376;-10.782;2023-02-18T02:55:10;26.40;99.90
56298;DHT22;42208;6.376;-10.782;2023-02-18T02:57:49;26.40;99.90
56298;DHT22;42208;6.376;-10.782;2023-02-18T03:00:46;26.30;99.90
56298;DHT22;42208;6.376;-10.782;2023-02-18T03:14:54;26.30;99.90
56298;DHT22;42208;6.376;-10.782;2023-02-18T03:17:29;26.30;99.90
56298;DHT22;42208;6.376;-10.782;2023-02-18T03:20:13;26.30;99.90
56298;DHT22;42208;6.376;-10.782;2023-02-18T03:22:47;26.30;99.90
56298;DHT22;42208;6.376;-10.782;2023-02-18T03:25:18;26.30;99.90
56298;DHT22;42208;6.376;-10.782;2023-02-18T03:28:02;26.30;99.90
56298;DHT22;42208;6.376;-10.782;2023-02-18T03:30:44;26.30;99.90
56298;DHT22;42208;6.376;-10.782;2023-02-18T03:33:19;26.30;99.90
56298;DHT22;42208;6.376;-10.782;2023-02-18T03:35:50;26.30;99.90
56298;DHT22;42208;6.376;-10.782;2023-02-18T03:38:35;26.30;99.90
56298;DHT22;42208;6.376;-10.782;2023-02-18T03:41:05;26.30;99.90
56298;DHT22;42208;6.376;-10.782;2023-02-18T03:43:36;26.30;99.90
56298;DHT22;42208;6.376;-10.782;2023-02-18T03:46:05;26.30;99.90
56298;DHT22;42208;6.376;-10.782;2023-02-18T03:48:34;26.30;99.90
56298;DHT22;42208;6.376;-10.782;2023-02-18T03:51:02;26.30;99.90
56298;DHT22;42208;6.376;-10.782;2023-02-18T03:53:30;26.30;99.90
56298;DHT22;42208;6.376;-10.782;2023-02-18T03:55:58;26.30;99.90
56298;DHT22;42208;6.376;-10.782;2023-02-18T03:58:27;26.30;99.90
56298;DHT22;42208;6.376;-10.782;2023-02-18T04:00:55;26.30;99.90
56298;DHT22;42208;6.376;-10.782;2023-02-18T04:03:24;26.20;99.90
56298;DHT22;42208;6.376;-10.782;2023-02-18T04:05:53;26.20;99.90
56298;DHT22;42208;6.376;-10.782;2023-02-18T04:08:21;26.20;99.90
56298;DHT22;42208;6.376;-10.782;2023-02-18T04:10:49;26.10;99.90
56298;DHT22;42208;6.376;-10.782;2023-02-18T04:13:19;26.10;99.90
56298;DHT22;42208;6.376;-10.782;2023-02-18T04:15:51;26.00;99.90
56298;DHT22;42208;6.376;-10.782;2023-02-18T04:18:19;26.00;99.90
56298;DHT22;42208;6.376;-10.782;2023-02-18T04:20:48;26.00;99.90
56298;DHT22;42208;6.376;-10.782;2023-02-18T04:23:16;26.00;99.90
56298;DHT22;42208;6.376;-10.782;2023-02-18T04:25:45;26.00;99.90
56298;DHT22;42208;6.376;-10.782;2023-02-18T04:28:14;26.00;99.90
56298;DHT22;42208;6.376;-10.782;2023-02-18T04:30:44;26.00;99.90
56298;DHT22;42208;6.376;-10.782;2023-02-18T04:33:14;25.90;99.90
56298;DHT22;42208;6.376;-10.782;2023-02-18T04:35:42;25.90;99.90
56298;DHT22;42208;6.376;-10.782;2023-02-18T04:38:10;25.90;99.90
56298;DHT22;42208;6.376;-10.782;2023-02-18T04:40:39;25.90;99.90
56298;DHT22;42208;6.376;-10.782;2023-02-18T04:43:07;25.90;99.90
56298;DHT22;42208;6.376;-10.782;2023-02-18T04:45:35;25.80;99.90
56298;DHT22;42208;6.376;-10.782;2023-02-18T04:48:04;25.80;99.90
56298;DHT22;42208;6.376;-10.782;2023-02-18T04:50:32;25.70;99.90
56298;DHT22;42208;6.376;-10.782;2023-02-18T04:53:01;25.70;99.90
56298;DHT22;42208;6.376;-10.782;2023-02-18T04:55:29;25.70;99.90
56298;DHT22;42208;6.376;-10.782;2023-02-18T04:57:57;25.70;99.90
56298;DHT22;42208;6.376;-10.782;2023-02-18T05:00:25;25.70;99.90
56298;DHT22;42208;6.376;-10.782;2023-02-18T05:02:54;25.70;99.90
56298;DHT22;42208;6.376;-10.782;2023-02-18T05:05:22;25.70;99.90
56298;DHT22;42208;6.376;-10.782;2023-02-18T05:07:51;25.70;99.90
56298;DHT22;42208;6.376;-10.782;2023-02-18T05:10:20;25.70;99.90
56298;DHT22;42208;6.376;-10.782;2023-02-18T05:13:04;25.70;99.90
56298;DHT22;42208;6.376;-10.782;2023-02-18T05:15:36;25.70;99.90
56298;DHT22;42208;6.376;-10.782;2023-02-18T05:18:05;25.70;99.90
56298;DHT22;42208;6.376;-10.782;2023-02-18T05:20:36;25.70;99.90
56298;DHT22;42208;6.376;-10.782;2023-02-18T05:23:05;25.70;99.90
56298;DHT22;42208;6.376;-10.782;2023-02-18T05:25:33;25.70;99.90
56298;DHT22;42208;6.376;-10.782;2023-02-18T05:28:07;25.70;99.90
56298;DHT22;42208;6.376;-10.782;2023-02-18T05:30:36;25.70;99.90
56298;DHT22;42208;6.376;-10.782;2023-02-18T05:33:04;25.70;99.90
56298;DHT22;42208;6.376;-10.782;2023-02-18T05:35:32;25.70;99.90
56298;DHT22;42208;6.376;-10.782;2023-02-18T05:38:01;25.60;99.90
56298;DHT22;42208;6.376;-10.782;2023-02-18T05:40:29;25.60;99.90
56298;DHT22;42208;6.376;-10.782;2023-02-18T05:42:58;25.60;99.90
56298;DHT22;42208;6.376;-10.782;2023-02-18T05:45:26;25.60;99.90
56298;DHT22;42208;6.376;-10.782;2023-02-18T05:47:54;25.60;99.90
56298;DHT22;42208;6.376;-10.782;2023-02-18T05:50:25;25.70;99.90
56298;DHT22;42208;6.376;-10.782;2023-02-18T05:52:53;25.70;99.90
56298;DHT22;42208;6.376;-10.782;2023-02-18T05:55:21;25.60;99.90
56298;DHT22;42208;6.376;-10.782;2023-02-18T05:57:50;25.60;99.90
56298;DHT22;42208;6.376;-10.782;2023-02-18T06:00:19;25.50;99.90
56298;DHT22;42208;6.376;-10.782;2023-02-18T06:02:57;25.60;99.90
56298;DHT22;42208;6.376;-10.782;2023-02-18T06:05:29;25.60;99.90
56298;DHT22;42208;6.376;-10.782;2023-02-18T06:08:02;25.60;99.90
56298;DHT22;42208;6.376;-10.782;2023-02-18T06:10:41;25.50;99.90
56298;DHT22;42208;6.376;-10.782;2023-02-18T06:13:14;25.50;99.90
56298;DHT22;42208;6.376;-10.782;2023-02-18T06:15:43;25.50;99.90
56298;DHT22;42208;6.376;-10.782;2023-02-18T06:18:12;25.50;99.90
56298;DHT22;42208;6.376;-10.782;2023-02-18T06:20:40;25.50;99.90
56298;DHT22;42208;6.376;-10.782;2023-02-18T06:23:08;25.50;99.90
56298;DHT22;42208;6.376;-10.782;2023-02-18T06:25:41;25.60;99.90
56298;DHT22;42208;6.376;-10.782;2023-02-18T06:28:09;25.60;99.90
56298;DHT22;42208;6.376;-10.782;2023-02-18T06:30:38;25.50;99.90
56298;DHT22;42208;6.376;-10.782;2023-02-18T06:33:14;25.50;99.90
56298;DHT22;42208;6.376;-10.782;2023-02-18T06:36:02;25.60;99.90
56298;DHT22;42208;6.376;-10.782;2023-02-18T06:38:37;25.60;99.90
56298;DHT22;42208;6.376;-10.782;2023-02-18T06:41:06;25.60;99.90
56298;DHT22;42208;6.376;-10.782;2023-02-18T06:43:35;25.60;99.90
56298;DHT22;42208;6.376;-10.782;2023-02-18T06:46:09;25.60;99.90
56298;DHT22;42208;6.376;-10.782;2023-02-18T06:48:40;25.60;99.90
56298;DHT22;42208;6.376;-10.782;2023-02-18T06:51:09;25.50;99.90
56298;DHT22;42208;6.376;-10.782;2023-02-18T06:53:37;25.60;99.90
56298;DHT22;42208;6.376;-10.782;2023-02-18T06:56:05;25.50;99.90
56298;DHT22;42208;6.376;-10.782;2023-02-18T06:58:34;25.50;99.90
56298;DHT22;42208;6.376;-10.782;2023-02-18T07:01:03;25.50;99.90
56298;DHT22;42208;6.376;-10.782;2023-02-18T07:03:32;25.50;99.90
56298;DHT22;42208;6.376;-10.782;2023-02-18T07:06:01;25.50;99.90
56298;DHT22;42208;6.376;-10.782;2023-02-18T07:08:29;25.50;99.90
56298;DHT22;42208;6.376;-10.782;2023-02-18T07:10:58;25.50;99.90
56298;DHT22;42208;6.376;-10.782;2023-02-18T07:13:26;25.60;99.90
56298;DHT22;42208;6.376;-10.782;2023-02-18T07:15:55;25.50;99.90
56298;DHT22;42208;6.376;-10.782;2023-02-18T07:18:23;25.50;99.90
56298;DHT22;42208;6.376;-10.782;2023-02-18T07:20:52;25.50;99.90
56298;DHT22;42208;6.376;-10.782;2023-02-18T07:23:20;25.50;99.90
56298;DHT22;42208;6.376;-10.782;2023-02-18T07:25:51;25.40;99.90
56298;DHT22;42208;6.376;-10.782;2023-02-18T07:28:19;25.40;99.90
56298;DHT22;42208;6.376;-10.782;2023-02-18T07:30:48;25.40;99.90
56298;DHT22;42208;6.376;-10.782;2023-02-18T07:33:16;25.50;99.90
56298;DHT22;42208;6.376;-10.782;2023-02-18T07:35:44;25.40;99.90
56298;DHT22;42208;6.376;-10.782;2023-02-18T07:38:13;25.50;99.90
56298;DHT22;42208;6.376;-10.782;2023-02-18T07:40:41;25.50;99.90
56298;DHT22;42208;6.376;-10.782;2023-02-18T07:43:12;25.50;99.90
56298;DHT22;42208;6.376;-10.782;2023-02-18T07:45:40;25.50;99.90
56298;DHT22;42208;6.376;-10.782;2023-02-18T07:48:08;25.50;99.90
56298;DHT22;42208;6.376;-10.782;2023-02-18T07:50:41;25.60;99.90
56298;DHT22;42208;6.376;-10.782;2023-02-18T07:53:11;25.60;99.90
56298;DHT22;42208;6.376;-10.782;2023-02-18T07:55:40;25.60;99.90
56298;DHT22;42208;6.376;-10.782;2023-02-18T07:58:08;25.60;99.90
56298;DHT22;42208;6.376;-10.782;2023-02-18T08:00:37;25.60;99.90
56298;DHT22;42208;6.376;-10.782;2023-02-18T08:03:05;25.60;99.90
56298;DHT22;42208;6.376;-10.782;2023-02-18T08:05:34;25.60;99.90
56298;DHT22;42208;6.376;-10.782;2023-02-18T08:08:02;25.70;99.90
56298;DHT22;42208;6.376;-10.782;2023-02-18T08:10:30;25.70;99.90
56298;DHT22;42208;6.376;-10.782;2023-02-18T08:12:59;25.70;99.90
56298;DHT22;42208;6.376;-10.782;2023-02-18T08:15:27;25.70;99.90
56298;DHT22;42208;6.376;-10.782;2023-02-18T08:17:55;25.80;99.90
56298;DHT22;42208;6.376;-10.782;2023-02-18T08:20:24;25.80;99.90
56298;DHT22;42208;6.376;-10.782;2023-02-18T08:22:53;25.80;99.90
56298;DHT22;42208;6.376;-10.782;2023-02-18T08:25:21;25.90;99.90
56298;DHT22;42208;6.376;-10.782;2023-02-18T08:27:56;25.90;99.90
56298;DHT22;42208;6.376;-10.782;2023-02-18T08:30:25;26.00;99.90
56298;DHT22;42208;6.376;-10.782;2023-02-18T08:32:54;26.00;99.90
56298;DHT22;42208;6.376;-10.782;2023-02-18T08:35:23;26.10;99.90
56298;DHT22;42208;6.376;-10.782;2023-02-18T08:37:51;26.10;99.90
56298;DHT22;42208;6.376;-10.782;2023-02-18T08:40:21;26.20;99.90
56298;DHT22;42208;6.376;-10.782;2023-02-18T08:42:49;26.20;99.90
56298;DHT22;42208;6.376;-10.782;2023-02-18T08:45:18;26.30;99.90
56298;DHT22;42208;6.376;-10.782;2023-02-18T08:47:46;26.30;99.90
56298;DHT22;42208;6.376;-10.782;2023-02-18T08:50:34;26.40;99.90
56298;DHT22;42208;6.376;-10.782;2023-02-18T08:53:03;26.40;99.90
56298;DHT22;42208;6.376;-10.782;2023-02-18T08:55:33;26.40;99.90
56298;DHT22;42208;6.376;-10.782;2023-02-18T08:58:04;26.50;99.90
56298;DHT22;42208;6.376;-10.782;2023-02-18T09:00:33;26.50;99.90
56298;DHT22;42208;6.376;-10.782;2023-02-18T09:03:01;26.60;99.90
56298;DHT22;42208;6.376;-10.782;2023-02-18T09:05:30;26.60;99.90
56298;DHT22;42208;6.376;-10.782;2023-02-18T09:07:58;26.70;99.90
56298;DHT22;42208;6.376;-10.782;2023-02-18T09:10:27;26.70;99.90
56298;DHT22;42208;6.376;-10.782;2023-02-18T09:12:55;26.70;99.90
56298;DHT22;42208;6.376;-10.782;2023-02-18T09:15:23;26.80;99.90
56298;DHT22;42208;6.376;-10.782;2023-02-18T09:17:52;26.80;99.90
56298;DHT22;42208;6.376;-10.782;2023-02-18T09:20:20;26.90;99.90
56298;DHT22;42208;6.376;-10.782;2023-02-18T09:22:49;26.90;99.90
56298;DHT22;42208;6.376;-10.782;2023-02-18T09:25:17;26.90;99.90
56298;DHT22;42208;6.376;-10.782;2023-02-18T09:27:45;26.90;99.90
56298;DHT22;42208;6.376;-10.782;2023-02-18T09:30:14;27.00;99.90
56298;DHT22;42208;6.376;-10.782;2023-02-18T09:32:42;27.00;99.90
56298;DHT22;42208;6.376;-10.782;2023-02-18T09:35:11;27.10;99.90
56298;DHT22;42208;6.376;-10.782;2023-02-18T09:37:39;27.20;99.90
56298;DHT22;42208;6.376;-10.782;2023-02-18T09:40:09;27.20;99.90
56298;DHT22;42208;6.376;-10.782;2023-02-18T09:42:42;27.30;99.90
56298;DHT22;42208;6.376;-10.782;2023-02-18T09:45:11;27.30;99.90
56298;DHT22;42208;6.376;-10.782;2023-02-18T09:47:42;27.40;99.90
56298;DHT22;42208;6.376;-10.782;2023-02-18T09:50:23;27.50;99.90
56298;DHT22;42208;6.376;-10.782;2023-02-18T09:52:52;27.60;99.90
56298;DHT22;42208;6.376;-10.782;2023-02-18T09:55:24;27.70;99.90
56298;DHT22;42208;6.376;-10.782;2023-02-18T09:58:18;27.70;99.90
56298;DHT22;42208;6.376;-10.782;2023-02-18T10:03:21;27.80;99.90
56298;DHT22;42208;6.376;-10.782;2023-02-18T10:06:02;27.90;99.90
56298;DHT22;42208;6.376;-10.782;2023-02-18T10:08:37;28.00;99.90
56298;DHT22;42208;6.376;-10.782;2023-02-18T10:13:52;28.10;99.90
56298;DHT22;42208;6.376;-10.782;2023-02-18T10:16:23;28.10;99.90
56298;DHT22;42208;6.376;-10.782;2023-02-18T10:19:00;28.20;99.90
56298;DHT22;42208;6.376;-10.782;2023-02-18T10:21:33;28.20;99.90
56298;DHT22;42208;6.376;-10.782;2023-02-18T10:24:14;28.20;99.90
56298;DHT22;42208;6.376;-10.782;2023-02-18T10:26:44;28.30;99.90
56298;DHT22;42208;6.376;-10.782;2023-02-18T10:29:14;28.40;99.90
56298;DHT22;42208;6.376;-10.782;2023-02-18T10:34:53;28.60;99.90
56298;DHT22;42208;6.376;-10.782;2023-02-18T10:40:55;28.70;99.90
56298;DHT22;42208;6.376;-10.782;2023-02-18T10:52:21;28.80;99.90
56298;DHT22;42208;6.376;-10.782;2023-02-18T10:54:58;28.90;99.90
56298;DHT22;42208;6.376;-10.782;2023-02-18T10:57:27;29.00;99.90
56298;DHT22;42208;6.376;-10.782;2023-02-18T11:02:31;29.00;99.90
56298;DHT22;42208;6.376;-10.782;2023-02-18T11:05:11;29.10;99.90
56298;DHT22;42208;6.376;-10.782;2023-02-18T11:07:47;29.30;99.90
56298;DHT22;42208;6.376;-10.782;2023-02-18T11:10:24;29.30;99.90
56298;DHT22;42208;6.376;-10.782;2023-02-18T11:13:14;29.30;99.90
56298;DHT22;42208;6.376;-10.782;2023-02-18T11:16:03;29.40;99.90
56298;DHT22;42208;6.376;-10.782;2023-02-18T11:18:43;29.40;99.90
56298;DHT22;42208;6.376;-10.782;2023-02-18T11:21:36;29.40;99.90
56298;DHT22;42208;6.376;-10.782;2023-02-18T11:24:13;29.50;99.90
56298;DHT22;42208;6.376;-10.782;2023-02-18T11:26:42;29.40;99.90
56298;DHT22;42208;6.376;-10.782;2023-02-18T11:31:45;29.50;99.90
56298;DHT22;42208;6.376;-10.782;2023-02-18T11:34:20;29.60;99.90
56298;DHT22;42208;6.376;-10.782;2023-02-18T11:36:50;29.60;99.90
56298;DHT22;42208;6.376;-10.782;2023-02-18T11:39:26;29.50;99.90
56298;DHT22;42208;6.376;-10.782;2023-02-18T11:42:00;29.60;99.90
56298;DHT22;42208;6.376;-10.782;2023-02-18T11:44:36;29.60;99.90
56298;DHT22;42208;6.376;-10.782;2023-02-18T11:49:34;29.80;99.90
56298;DHT22;42208;6.376;-10.782;2023-02-18T11:52:19;29.80;99.90
56298;DHT22;42208;6.376;-10.782;2023-02-18T11:55:20;29.80;99.90
56298;DHT22;42208;6.376;-10.782;2023-02-18T12:05:53;29.80;99.90
56298;DHT22;42208;6.376;-10.782;2023-02-18T12:08:26;29.70;99.90
56298;DHT22;42208;6.376;-10.782;2023-02-18T12:11:08;29.70;99.90
56298;DHT22;42208;6.376;-10.782;2023-02-18T12:13:51;29.60;99.90
56298;DHT22;42208;6.376;-10.782;2023-02-18T12:22:45;29.70;99.90
56298;DHT22;42208;6.376;-10.782;2023-02-18T12:31:01;29.80;99.90
56298;DHT22;42208;6.376;-10.782;2023-02-18T12:50:40;30.40;99.90
56298;DHT22;42208;6.376;-10.782;2023-02-18T12:56:51;30.40;99.90
56298;DHT22;42208;6.376;-10.782;2023-02-18T13:10:31;30.10;99.90
56298;DHT22;42208;6.376;-10.782;2023-02-18T13:15:42;30.30;99.90
56298;DHT22;42208;6.376;-10.782;2023-02-18T13:18:37;30.40;99.90
56298;DHT22;42208;6.376;-10.782;2023-02-18T13:21:07;30.50;99.90
56298;DHT22;42208;6.376;-10.782;2023-02-18T13:23:52;30.40;99.90
56298;DHT22;42208;6.376;-10.782;2023-02-18T13:26:23;30.30;99.90
56298;DHT22;42208;6.376;-10.782;2023-02-18T13:40:45;30.70;99.90
56298;DHT22;42208;6.376;-10.782;2023-02-18T13:54:03;30.60;99.90
56298;DHT22;42208;6.376;-10.782;2023-02-18T13:56:33;30.70;99.90
56298;DHT22;42208;6.376;-10.782;2023-02-18T13:59:29;30.80;99.90
56298;DHT22;42208;6.376;-10.782;2023-02-18T14:04:54;31.00;99.90
56298;DHT22;42208;6.376;-10.782;2023-02-18T14:31:44;31.10;99.90
56298;DHT22;42208;6.376;-10.782;2023-02-18T14:39:34;31.30;99.90
56298;DHT22;42208;6.376;-10.782;2023-02-18T14:44:58;31.40;99.90
56298;DHT22;42208;6.376;-10.782;2023-02-18T14:50:11;31.50;99.90
56298;DHT22;42208;6.376;-10.782;2023-02-18T14:55:25;31.50;99.90
56298;DHT22;42208;6.376;-10.782;2023-02-18T14:58:24;31.50;99.90
56298;DHT22;42208;6.376;-10.782;2023-02-18T15:00:54;31.50;99.90
56298;DHT22;42208;6.376;-10.782;2023-02-18T15:03:22;31.60;99.90
56298;DHT22;42208;6.376;-10.782;2023-02-18T15:05:53;31.60;99.90
56298;DHT22;42208;6.376;-10.782;2023-02-18T15:08:23;31.70;99.90
56298;DHT22;42208;6.376;-10.782;2023-02-18T15:11:18;31.40;99.90
56298;DHT22;42208;6.376;-10.782;2023-02-18T15:13:47;31.50;99.90
56298;DHT22;42208;6.376;-10.782;2023-02-18T15:16:29;31.60;99.90
56298;DHT22;42208;6.376;-10.782;2023-02-18T15:18:59;31.70;99.90
56298;DHT22;42208;6.376;-10.782;2023-02-18T15:21:36;31.70;99.90
56298;DHT22;42208;6.376;-10.782;2023-02-18T15:24:30;31.90;99.90
56298;DHT22;42208;6.376;-10.782;2023-02-18T15:27:02;31.90;99.90
56298;DHT22;42208;6.376;-10.782;2023-02-18T15:29:37;32.00;99.90
56298;DHT22;42208;6.376;-10.782;2023-02-18T15:32:24;32.10;99.90
56298;DHT22;42208;6.376;-10.782;2023-02-18T15:34:58;31.90;99.90
56298;DHT22;42208;6.376;-10.782;2023-02-18T15:37:28;32.10;99.90
56298;DHT22;42208;6.376;-10.782;2023-02-18T15:39:56;32.10;99.90
56298;DHT22;42208;6.376;-10.782;2023-02-18T15:42:32;32.10;99.90
56298;DHT22;42208;6.376;-10.782;2023-02-18T15:47:32;32.00;99.90
56298;DHT22;42208;6.376;-10.782;2023-02-18T15:50:02;32.10;99.90
56298;DHT22;42208;6.376;-10.782;2023-02-18T15:52:32;32.20;99.90
56298;DHT22;42208;6.376;-10.782;2023-02-18T15:55:34;32.30;99.90
56298;DHT22;42208;6.376;-10.782;2023-02-18T15:58:04;32.40;99.90
56298;DHT22;42208;6.376;-10.782;2023-02-18T16:00:40;32.40;99.90
56298;DHT22;42208;6.376;-10.782;2023-02-18T16:11:33;32.30;99.90
56298;DHT22;42208;6.376;-10.782;2023-02-18T16:14:02;32.20;99.90
56298;DHT22;42208;6.376;-10.782;2023-02-18T16:16:35;31.90;99.90
56298;DHT22;42208;6.376;-10.782;2023-02-18T16:19:04;31.90;99.90
56298;DHT22;42208;6.376;-10.782;2023-02-18T16:21:38;31.90;99.90
56298;DHT22;42208;6.376;-10.782;2023-02-18T16:24:27;32.00;99.90
56298;DHT22;42208;6.376;-10.782;2023-02-18T16:26:57;32.10;99.90
56298;DHT22;42208;6.376;-10.782;2023-02-18T16:29:34;32.20;99.90
56298;DHT22;42208;6.376;-10.782;2023-02-18T16:32:03;32.30;99.90
56298;DHT22;42208;6.376;-10.782;2023-02-18T16:34:32;32.30;99.90
56298;DHT22;42208;6.376;-10.782;2023-02-18T16:37:01;32.00;99.90
56298;DHT22;42208;6.376;-10.782;2023-02-18T16:39:33;32.20;99.90
56298;DHT22;42208;6.376;-10.782;2023-02-18T16:42:02;32.20;99.90
56298;DHT22;42208;6.376;-10.782;2023-02-18T16:44:33;32.10;99.90
56298;DHT22;42208;6.376;-10.782;2023-02-18T16:47:01;32.10;99.90
56298;DHT22;42208;6.376;-10.782;2023-02-18T16:49:31;32.10;99.90
56298;DHT22;42208;6.376;-10.782;2023-02-18T16:52:01;32.20;99.90
56298;DHT22;42208;6.376;-10.782;2023-02-18T16:54:34;32.10;99.90
56298;DHT22;42208;6.376;-10.782;2023-02-18T16:57:05;32.10;99.90
56298;DHT22;42208;6.376;-10.782;2023-02-18T16:59:34;32.20;99.90
56298;DHT22;42208;6.376;-10.782;2023-02-18T17:02:02;32.20;99.90
56298;DHT22;42208;6.376;-10.782;2023-02-18T17:04:31;32.30;99.90
56298;DHT22;42208;6.376;-10.782;2023-02-18T17:06:59;32.10;99.90
56298;DHT22;42208;6.376;-10.782;2023-02-18T17:09:28;32.40;99.90
56298;DHT22;42208;6.376;-10.782;2023-02-18T17:11:59;32.40;99.90
56298;DHT22;42208;6.376;-10.782;2023-02-18T17:14:27;32.40;99.90
56298;DHT22;42208;6.376;-10.782;2023-02-18T17:16:56;32.40;99.90
56298;DHT22;42208;6.376;-10.782;2023-02-18T17:19:25;32.20;99.90
56298;DHT22;42208;6.376;-10.782;2023-02-18T17:21:53;32.20;99.90
56298;DHT22;42208;6.376;-10.782;2023-02-18T17:24:22;32.20;99.90
56298;DHT22;42208;6.376;-10.782;2023-02-18T17:26:50;32.20;99.90
56298;DHT22;42208;6.376;-10.782;2023-02-18T17:29:21;32.20;99.90
56298;DHT22;42208;6.376;-10.782;2023-02-18T17:31:54;32.00;99.90
56298;DHT22;42208;6.376;-10.782;2023-02-18T17:34:28;31.90;99.90
56298;DHT22;42208;6.376;-10.782;2023-02-18T17:36:57;31.80;99.90
56298;DHT22;42208;6.376;-10.782;2023-02-18T17:39:26;31.60;99.90
56298;DHT22;42208;6.376;-10.782;2023-02-18T17:41:55;31.30;99.90
56298;DHT22;42208;6.376;-10.782;2023-02-18T17:44:23;31.20;99.90
56298;DHT22;42208;6.376;-10.782;2023-02-18T17:46:52;31.00;99.90
56298;DHT22;42208;6.376;-10.782;2023-02-18T17:49:20;30.80;99.90
56298;DHT22;42208;6.376;-10.782;2023-02-18T17:51:48;30.40;99.90
56298;DHT22;42208;6.376;-10.782;2023-02-18T17:54:18;30.30;99.90
56298;DHT22;42208;6.376;-10.782;2023-02-18T17:56:47;30.40;99.90
56298;DHT22;42208;6.376;-10.782;2023-02-18T17:59:15;29.90;99.90
56298;DHT22;42208;6.376;-10.782;2023-02-18T18:01:44;30.00;99.90
56298;DHT22;42208;6.376;-10.782;2023-02-18T18:04:14;30.20;99.90
56298;DHT22;42208;6.376;-10.782;2023-02-18T18:06:43;30.20;99.90
56298;DHT22;42208;6.376;-10.782;2023-02-18T18:09:11;30.20;99.90
56298;DHT22;42208;6.376;-10.782;2023-02-18T18:11:39;29.90;99.90
56298;DHT22;42208;6.376;-10.782;2023-02-18T18:14:12;29.90;99.90
56298;DHT22;42208;6.376;-10.782;2023-02-18T18:16:40;29.90;99.90
56298;DHT22;42208;6.376;-10.782;2023-02-18T18:19:08;29.70;99.90
56298;DHT22;42208;6.376;-10.782;2023-02-18T18:21:36;29.70;99.90
56298;DHT22;42208;6.376;-10.782;2023-02-18T18:24:05;29.60;99.90
56298;DHT22;42208;6.376;-10.782;2023-02-18T18:26:33;29.60;99.90
56298;DHT22;42208;6.376;-10.782;2023-02-18T18:29:02;29.60;99.90
56298;DHT22;42208;6.376;-10.782;2023-02-18T18:31:30;29.50;99.90
56298;DHT22;42208;6.376;-10.782;2023-02-18T18:33:59;29.40;99.90
56298;DHT22;42208;6.376;-10.782;2023-02-18T18:36:28;29.40;99.90
56298;DHT22;42208;6.376;-10.782;2023-02-18T18:38:56;29.30;99.90
56298;DHT22;42208;6.376;-10.782;2023-02-18T18:41:25;29.30;99.90
56298;DHT22;42208;6.376;-10.782;2023-02-18T18:43:55;29.20;99.90
56298;DHT22;42208;6.376;-10.782;2023-02-18T18:46:23;29.10;99.90
56298;DHT22;42208;6.376;-10.782;2023-02-18T18:48:52;29.10;99.90
56298;DHT22;42208;6.376;-10.782;2023-02-18T18:51:26;29.00;99.90
56298;DHT22;42208;6.376;-10.782;2023-02-18T18:53:55;28.90;99.90
56298;DHT22;42208;6.376;-10.782;2023-02-18T18:56:23;28.90;99.90
56298;DHT22;42208;6.376;-10.782;2023-02-18T18:58:52;28.90;99.90
56298;DHT22;42208;6.376;-10.782;2023-02-18T19:01:21;28.80;99.90
56298;DHT22;42208;6.376;-10.782;2023-02-18T19:03:49;28.70;99.90